DLH650 EDDF-UAAA
Flight info
| Callsign | DLH650 |
|---|---|
| Flight time | N/A |
| Altitude | 31000 |
| Route | CINDY6F CINDY Z74 HAREM DCT ASLEP DCT TAKUT L603 BESNI/N0480F350 L605 MIQ DCT ALUTU DCT BIBAG/N0474F370 Q104 AKIMA DCT ARSIN DCT GAZDA DCT TEGRI DCT DINRO N743 UDROS DCT CRM DCT ROLIN DCT TAGAR/N0476F390 DCT BT DCT BARAD M747 LUSAL N199 RASAM L88 METKA B476 TIMGA A480 OTBOR/K0870F390 N147 ELAHA Z621 ARBOL M610 TIPSA |
| Aircraft | A343/H-SDE2E3FGHIJ4J5M1RWXY/LB1D1 |
Departure
| Time | 2026-05-07 10:50 |
|---|---|
| Airport | Frankfurt Main Airport (EDDF) |
Arrival
| Time | N/A |
|---|---|
| Airport | Almaty International Airport (UAAA) |
| Time | Latitude | Longitude | Altitude | Speed | Heading |
|---|---|---|---|---|---|
| 2026-05-07 10:09 | 50.04910 | 8.58064 | 363 ft | 0 kts | 339° |
| 2026-05-07 10:30 | 50.04902 | 8.58068 | 369 ft | 2 kts | 337° |
| 2026-05-07 10:30 | 50.04887 | 8.58079 | 369 ft | 2 kts | 336° |
| 2026-05-07 10:30 | 50.04872 | 8.58089 | 367 ft | 2 kts | 332° |
| 2026-05-07 10:30 | 50.04858 | 8.58102 | 369 ft | 2 kts | 326° |
| 2026-05-07 10:31 | 50.04844 | 8.58117 | 371 ft | 2 kts | 315° |
| 2026-05-07 10:31 | 50.04833 | 8.58136 | 368 ft | 2 kts | 290° |
| 2026-05-07 10:31 | 50.04830 | 8.58152 | 370 ft | 2 kts | 265° |
| 2026-05-07 10:31 | 50.04831 | 8.58173 | 370 ft | 1 kts | 248° |
| 2026-05-07 10:32 | 50.04832 | 8.58177 | 369 ft | 0 kts | 246° |
| 2026-05-07 10:34 | 50.04830 | 8.58170 | 366 ft | 3 kts | 246° |
| 2026-05-07 10:34 | 50.04811 | 8.58091 | 368 ft | 13 kts | 249° |
| 2026-05-07 10:35 | 50.04761 | 8.57971 | 370 ft | 13 kts | 217° |
| 2026-05-07 10:35 | 50.04681 | 8.57975 | 368 ft | 12 kts | 159° |
| 2026-05-07 10:35 | 50.04610 | 8.58017 | 367 ft | 8 kts | 160° |
| 2026-05-07 10:35 | 50.04567 | 8.58028 | 370 ft | 4 kts | 185° |
| 2026-05-07 10:36 | 50.04544 | 8.58005 | 372 ft | 6 kts | 223° |
| 2026-05-07 10:36 | 50.04520 | 8.57923 | 371 ft | 12 kts | 248° |
| 2026-05-07 10:36 | 50.04479 | 8.57754 | 369 ft | 21 kts | 251° |
| 2026-05-07 10:36 | 50.04421 | 8.57511 | 369 ft | 26 kts | 249° |
| 2026-05-07 10:37 | 50.04358 | 8.57249 | 369 ft | 25 kts | 250° |
| 2026-05-07 10:37 | 50.04299 | 8.56997 | 367 ft | 22 kts | 249° |
| 2026-05-07 10:37 | 50.04260 | 8.56837 | 370 ft | 15 kts | 249° |
| 2026-05-07 10:37 | 50.04230 | 8.56684 | 364 ft | 12 kts | 270° |
| 2026-05-07 10:38 | 50.04286 | 8.56608 | 365 ft | 11 kts | 340° |
| 2026-05-07 10:38 | 50.04355 | 8.56563 | 369 ft | 10 kts | 324° |
| 2026-05-07 10:38 | 50.04365 | 8.56468 | 365 ft | 9 kts | 256° |
| 2026-05-07 10:38 | 50.04343 | 8.56373 | 364 ft | 10 kts | 249° |
| 2026-05-07 10:39 | 50.04319 | 8.56275 | 365 ft | 9 kts | 250° |
| 2026-05-07 10:39 | 50.04305 | 8.56216 | 368 ft | 0 kts | 250° |
| 2026-05-07 10:40 | 50.04304 | 8.56209 | 368 ft | 3 kts | 250° |
| 2026-05-07 10:40 | 50.04286 | 8.56136 | 363 ft | 13 kts | 249° |
| 2026-05-07 10:40 | 50.04239 | 8.55940 | 364 ft | 25 kts | 250° |
| 2026-05-07 10:40 | 50.04171 | 8.55654 | 360 ft | 24 kts | 249° |
| 2026-05-07 10:41 | 50.04129 | 8.55477 | 358 ft | 15 kts | 249° |
| 2026-05-07 10:41 | 50.04093 | 8.55329 | 365 ft | 14 kts | 250° |
| 2026-05-07 10:41 | 50.04061 | 8.55196 | 363 ft | 13 kts | 249° |
| 2026-05-07 10:41 | 50.04029 | 8.55063 | 363 ft | 14 kts | 249° |
| 2026-05-07 10:42 | 50.03992 | 8.54909 | 362 ft | 16 kts | 250° |
| 2026-05-07 10:42 | 50.03950 | 8.54733 | 361 ft | 20 kts | 250° |
| 2026-05-07 10:42 | 50.03897 | 8.54510 | 356 ft | 23 kts | 250° |
| 2026-05-07 10:42 | 50.03841 | 8.54332 | 354 ft | 16 kts | 236° |
| 2026-05-07 10:43 | 50.03790 | 8.54179 | 357 ft | 16 kts | 248° |
| 2026-05-07 10:43 | 50.03751 | 8.54019 | 355 ft | 16 kts | 250° |
| 2026-05-07 10:43 | 50.03713 | 8.53862 | 357 ft | 15 kts | 250° |
| 2026-05-07 10:43 | 50.03677 | 8.53712 | 355 ft | 14 kts | 249° |
| 2026-05-07 10:44 | 50.03641 | 8.53568 | 352 ft | 14 kts | 248° |
| 2026-05-07 10:44 | 50.03605 | 8.53421 | 353 ft | 15 kts | 249° |
| 2026-05-07 10:44 | 50.03565 | 8.53255 | 352 ft | 18 kts | 249° |
| 2026-05-07 10:44 | 50.03522 | 8.53076 | 347 ft | 18 kts | 250° |
| 2026-05-07 10:45 | 50.03494 | 8.52963 | 336 ft | 8 kts | 249° |
| 2026-05-07 10:45 | 50.03478 | 8.52901 | 337 ft | 1 kts | 248° |
| 2026-05-07 10:45 | 50.03475 | 8.52887 | 337 ft | 2 kts | 248° |
| 2026-05-07 10:45 | 50.03461 | 8.52834 | 336 ft | 7 kts | 248° |
| 2026-05-07 10:46 | 50.03446 | 8.52778 | 336 ft | 3 kts | 248° |
| 2026-05-07 10:46 | 50.03437 | 8.52745 | 336 ft | 2 kts | 248° |
| 2026-05-07 10:46 | 50.03437 | 8.52742 | 336 ft | 0 kts | 248° |
| 2026-05-07 10:46 | 50.03424 | 8.52694 | 334 ft | 10 kts | 248° |
| 2026-05-07 10:47 | 50.03386 | 8.52611 | 336 ft | 14 kts | 213° |
| 2026-05-07 10:47 | 50.03324 | 8.52596 | 336 ft | 0 kts | 180° |
| 2026-05-07 10:49 | 50.03266 | 8.52596 | 335 ft | 28 kts | 180° |
| 2026-05-07 10:49 | 50.02879 | 8.52599 | 336 ft | 82 kts | 180° |
| 2026-05-07 10:49 | 50.02140 | 8.52608 | 335 ft | 126 kts | 180° |
| 2026-05-07 10:49 | 50.01151 | 8.52617 | 334 ft | 161 kts | 179° |
| 2026-05-07 10:50 | 49.99988 | 8.52639 | 667 ft | 168 kts | 181° |
| 2026-05-07 10:50 | 49.98807 | 8.52656 | 1148 ft | 173 kts | 181° |
| 2026-05-07 10:50 | 49.97573 | 8.52684 | 1551 ft | 187 kts | 179° |
| 2026-05-07 10:50 | 49.96306 | 8.53460 | 1779 ft | 211 kts | 136° |
| 2026-05-07 10:51 | 49.95474 | 8.55406 | 2214 ft | 223 kts | 116° |
| 2026-05-07 10:51 | 49.94746 | 8.57627 | 2754 ft | 237 kts | 116° |
| 2026-05-07 10:51 | 49.94124 | 8.60056 | 3373 ft | 246 kts | 100° |
| 2026-05-07 10:51 | 49.93926 | 8.62740 | 4044 ft | 255 kts | 91° |
| 2026-05-07 10:52 | 49.93838 | 8.65528 | 4837 ft | 261 kts | 91° |
| 2026-05-07 10:52 | 49.93577 | 8.68356 | 5594 ft | 269 kts | 107° |
| 2026-05-07 10:52 | 49.92573 | 8.70818 | 6354 ft | 276 kts | 137° |
| 2026-05-07 10:52 | 49.91049 | 8.72668 | 7077 ft | 281 kts | 144° |
| 2026-05-07 10:53 | 49.89440 | 8.74425 | 7791 ft | 285 kts | 143° |
| 2026-05-07 10:53 | 49.88060 | 8.76639 | 8492 ft | 288 kts | 123° |
| 2026-05-07 10:53 | 49.87021 | 8.79311 | 9228 ft | 291 kts | 118° |
| 2026-05-07 10:53 | 49.86032 | 8.82085 | 9931 ft | 295 kts | 118° |
| 2026-05-07 10:54 | 49.85023 | 8.84913 | 10367 ft | 307 kts | 119° |
| 2026-05-07 10:54 | 49.83953 | 8.87883 | 10646 ft | 324 kts | 119° |
| 2026-05-07 10:54 | 49.82823 | 8.91007 | 10935 ft | 340 kts | 120° |
| 2026-05-07 10:54 | 49.81640 | 8.94270 | 11212 ft | 355 kts | 120° |
| 2026-05-07 10:55 | 49.80405 | 8.97669 | 11492 ft | 369 kts | 120° |
| 2026-05-07 10:55 | 49.79127 | 9.01176 | 11845 ft | 380 kts | 120° |
| 2026-05-07 10:55 | 49.77832 | 9.04728 | 12385 ft | 385 kts | 119° |
| 2026-05-07 10:55 | 49.76557 | 9.08402 | 12972 ft | 390 kts | 114° |
| 2026-05-07 10:56 | 49.75678 | 9.12383 | 13565 ft | 394 kts | 104° |
| 2026-05-07 10:56 | 49.74942 | 9.16484 | 14105 ft | 398 kts | 108° |
| 2026-05-07 10:56 | 49.73694 | 9.20372 | 14693 ft | 401 kts | 123° |
| 2026-05-07 10:56 | 49.72055 | 9.23851 | 15306 ft | 402 kts | 129° |
| 2026-05-07 10:57 | 49.70266 | 9.27132 | 15819 ft | 406 kts | 131° |
| 2026-05-07 10:57 | 49.68365 | 9.30391 | 16370 ft | 410 kts | 133° |
| 2026-05-07 10:57 | 49.66431 | 9.33647 | 16916 ft | 413 kts | 133° |
| 2026-05-07 10:57 | 49.64484 | 9.36940 | 17462 ft | 417 kts | 133° |
| 2026-05-07 10:58 | 49.62692 | 9.40468 | 18020 ft | 420 kts | 123° |
| 2026-05-07 10:58 | 49.61318 | 9.44458 | 18522 ft | 423 kts | 114° |
| 2026-05-07 10:58 | 49.60210 | 9.48671 | 19013 ft | 426 kts | 110° |
| 2026-05-07 10:58 | 49.59226 | 9.52995 | 19452 ft | 429 kts | 108° |
| 2026-05-07 10:59 | 49.58299 | 9.57392 | 19932 ft | 432 kts | 107° |
| 2026-05-07 10:59 | 49.57386 | 9.61832 | 20390 ft | 435 kts | 107° |
| 2026-05-07 10:59 | 49.56464 | 9.66293 | 20826 ft | 439 kts | 107° |
| 2026-05-07 10:59 | 49.55520 | 9.70793 | 21207 ft | 443 kts | 107° |
| 2026-05-07 11:00 | 49.54554 | 9.75323 | 21644 ft | 447 kts | 108° |
| 2026-05-07 11:00 | 49.53504 | 9.79851 | 22066 ft | 450 kts | 112° |
| 2026-05-07 11:00 | 49.52067 | 9.84161 | 22511 ft | 454 kts | 122° |
| 2026-05-07 11:00 | 49.50270 | 9.88175 | 22922 ft | 457 kts | 126° |
| 2026-05-07 11:01 | 49.48338 | 9.92062 | 23447 ft | 458 kts | 128° |
| 2026-05-07 11:01 | 49.46334 | 9.95886 | 23861 ft | 459 kts | 129° |
| 2026-05-07 11:01 | 49.44296 | 9.99685 | 24194 ft | 462 kts | 129° |
| 2026-05-07 11:01 | 49.42239 | 10.03496 | 24510 ft | 465 kts | 129° |
| 2026-05-07 11:02 | 49.40170 | 10.07337 | 24838 ft | 467 kts | 129° |
| 2026-05-07 11:02 | 49.38097 | 10.11205 | 25165 ft | 469 kts | 129° |
| 2026-05-07 11:02 | 49.36021 | 10.15098 | 25474 ft | 472 kts | 129° |
| 2026-05-07 11:02 | 49.33968 | 10.18957 | 25847 ft | 474 kts | 128° |
| 2026-05-07 11:03 | 49.31871 | 10.22891 | 26147 ft | 476 kts | 128° |
| 2026-05-07 11:03 | 49.29766 | 10.26834 | 26467 ft | 478 kts | 128° |
| 2026-05-07 11:03 | 49.27653 | 10.30788 | 26741 ft | 481 kts | 128° |
| 2026-05-07 11:03 | 49.25527 | 10.34760 | 27010 ft | 483 kts | 128° |
| 2026-05-07 11:04 | 49.23300 | 10.38630 | 27321 ft | 486 kts | 133° |
| 2026-05-07 11:04 | 49.20927 | 10.42332 | 27625 ft | 488 kts | 134° |
| 2026-05-07 11:04 | 49.18512 | 10.45992 | 27905 ft | 490 kts | 135° |
| 2026-05-07 11:04 | 49.16067 | 10.49634 | 28159 ft | 491 kts | 135° |
| 2026-05-07 11:05 | 49.13603 | 10.53274 | 28434 ft | 493 kts | 135° |
| 2026-05-07 11:05 | 49.11138 | 10.56911 | 28700 ft | 495 kts | 135° |
| 2026-05-07 11:05 | 49.08646 | 10.60584 | 28993 ft | 496 kts | 135° |
| 2026-05-07 11:05 | 49.06208 | 10.64178 | 29404 ft | 494 kts | 136° |
| 2026-05-07 11:06 | 49.03749 | 10.67807 | 30021 ft | 488 kts | 136° |
| 2026-05-07 11:06 | 49.01313 | 10.71393 | 30435 ft | 485 kts | 136° |
| 2026-05-07 11:06 | 48.98882 | 10.74964 | 30660 ft | 486 kts | 137° |
| 2026-05-07 11:06 | 48.96449 | 10.78532 | 30945 ft | 486 kts | 137° |
| 2026-05-07 11:07 | 48.91572 | 10.85669 | 31032 ft | 485 kts | 137° |
| 2026-05-07 11:07 | 48.86721 | 10.92772 | 31020 ft | 484 kts | 137° |
| 2026-05-07 11:08 | 48.81854 | 10.99877 | 31021 ft | 485 kts | 138° |
| 2026-05-07 11:08 | 48.77002 | 11.06942 | 31010 ft | 481 kts | 138° |
| 2026-05-07 11:09 | 48.72176 | 11.13940 | 31022 ft | 481 kts | 138° |
| 2026-05-07 11:09 | 48.67399 | 11.20974 | 31024 ft | 482 kts | 134° |
| 2026-05-07 11:10 | 48.65322 | 11.24968 | 31166 ft | 486 kts | 125° |
| 2026-05-07 11:10 | 48.63671 | 11.29427 | 31427 ft | 487 kts | 115° |
| 2026-05-07 11:10 | 48.62434 | 11.34198 | 31706 ft | 488 kts | 111° |
| 2026-05-07 11:10 | 48.61339 | 11.39043 | 31983 ft | 487 kts | 110° |
| 2026-05-07 11:11 | 48.60307 | 11.43918 | 32256 ft | 486 kts | 110° |
| 2026-05-07 11:11 | 48.59300 | 11.48792 | 32487 ft | 487 kts | 110° |
| 2026-05-07 11:11 | 48.58291 | 11.53677 | 32706 ft | 487 kts | 110° |
| 2026-05-07 11:11 | 48.57301 | 11.58568 | 32927 ft | 488 kts | 108° |
| 2026-05-07 11:12 | 48.56502 | 11.63556 | 33170 ft | 488 kts | 105° |
| 2026-05-07 11:12 | 48.55749 | 11.68557 | 33404 ft | 488 kts | 105° |
| 2026-05-07 11:12 | 48.55012 | 11.73569 | 33632 ft | 488 kts | 105° |
| 2026-05-07 11:12 | 48.54286 | 11.78568 | 33831 ft | 488 kts | 106° |
| 2026-05-07 11:13 | 48.53560 | 11.83574 | 34044 ft | 488 kts | 106° |
| 2026-05-07 11:13 | 48.52832 | 11.88577 | 34229 ft | 488 kts | 106° |
| 2026-05-07 11:13 | 48.52099 | 11.93578 | 34396 ft | 488 kts | 106° |
| 2026-05-07 11:13 | 48.51372 | 11.98512 | 34567 ft | 488 kts | 106° |
| 2026-05-07 11:14 | 48.50632 | 12.03510 | 34722 ft | 488 kts | 106° |
| 2026-05-07 11:14 | 48.49889 | 12.08505 | 34879 ft | 488 kts | 106° |
| 2026-05-07 11:14 | 48.49146 | 12.13496 | 34988 ft | 489 kts | 106° |
| 2026-05-07 11:14 | 48.48392 | 12.18523 | 34988 ft | 493 kts | 107° |
| 2026-05-07 11:15 | 48.46864 | 12.28607 | 35000 ft | 493 kts | 107° |
| 2026-05-07 11:15 | 48.45330 | 12.38666 | 34998 ft | 492 kts | 107° |
| 2026-05-07 11:16 | 48.43791 | 12.48708 | 34995 ft | 492 kts | 107° |
| 2026-05-07 11:16 | 48.42244 | 12.58739 | 34993 ft | 492 kts | 107° |
| 2026-05-07 11:17 | 48.40953 | 12.67070 | 34996 ft | 492 kts | 107° |
| 2026-05-07 11:17 | 48.39923 | 12.77263 | 35245 ft | 498 kts | 94° |
| 2026-05-07 11:18 | 48.39941 | 12.82483 | 35443 ft | 498 kts | 92° |
| 2026-05-07 11:18 | 48.40048 | 12.87689 | 35603 ft | 498 kts | 91° |
| 2026-05-07 11:18 | 48.40202 | 12.92896 | 35756 ft | 499 kts | 90° |
| 2026-05-07 11:18 | 48.40373 | 12.98103 | 35898 ft | 498 kts | 90° |
| 2026-05-07 11:19 | 48.40544 | 13.03324 | 36024 ft | 499 kts | 90° |
| 2026-05-07 11:19 | 48.40710 | 13.08551 | 36095 ft | 501 kts | 90° |
| 2026-05-07 11:19 | 48.40867 | 13.13794 | 36212 ft | 501 kts | 90° |
| 2026-05-07 11:19 | 48.41016 | 13.19029 | 36360 ft | 501 kts | 90° |
| 2026-05-07 11:20 | 48.41156 | 13.24258 | 36493 ft | 500 kts | 91° |
| 2026-05-07 11:20 | 48.41034 | 13.29476 | 36612 ft | 496 kts | 100° |
| 2026-05-07 11:20 | 48.40407 | 13.34550 | 36736 ft | 491 kts | 110° |
| 2026-05-07 11:20 | 48.39444 | 13.39469 | 36882 ft | 490 kts | 111° |
| 2026-05-07 11:21 | 48.38386 | 13.44340 | 36983 ft | 489 kts | 112° |
| 2026-05-07 11:21 | 48.37275 | 13.49192 | 36998 ft | 491 kts | 114° |
| 2026-05-07 11:21 | 48.35019 | 13.58825 | 36995 ft | 490 kts | 114° |
| 2026-05-07 11:22 | 48.32765 | 13.68482 | 36997 ft | 490 kts | 113° |
| 2026-05-07 11:22 | 48.30520 | 13.78151 | 36999 ft | 490 kts | 113° |
| 2026-05-07 11:23 | 48.28276 | 13.87809 | 36989 ft | 489 kts | 114° |
| 2026-05-07 11:23 | 48.26029 | 13.97439 | 36997 ft | 489 kts | 114° |
| 2026-05-07 11:24 | 48.23771 | 14.07070 | 36994 ft | 489 kts | 114° |
| 2026-05-07 11:24 | 48.21507 | 14.16675 | 36993 ft | 489 kts | 114° |
| 2026-05-07 11:25 | 48.19235 | 14.26273 | 36971 ft | 488 kts | 114° |
| 2026-05-07 11:25 | 48.16958 | 14.35858 | 36994 ft | 488 kts | 114° |
| 2026-05-07 11:26 | 48.14685 | 14.45376 | 36994 ft | 488 kts | 114° |
| 2026-05-07 11:26 | 48.12389 | 14.54949 | 36993 ft | 488 kts | 114° |
| 2026-05-07 11:27 | 48.10085 | 14.64517 | 36967 ft | 488 kts | 115° |
| 2026-05-07 11:27 | 48.07778 | 14.74059 | 36993 ft | 488 kts | 115° |
| 2026-05-07 11:28 | 48.05462 | 14.83594 | 36990 ft | 488 kts | 115° |
| 2026-05-07 11:28 | 48.03138 | 14.93120 | 36989 ft | 487 kts | 115° |